sensor_id;sensor_type;location;lat;lon;timestamp;temperature;humidity
51863;DHT22;37900;52.996;6.278;2023-04-19T00:01:26;16.20;82.30
51863;DHT22;37900;52.996;6.278;2023-04-19T00:03:53;16.20;82.30
51863;DHT22;37900;52.996;6.278;2023-04-19T00:06:19;16.20;82.30
51863;DHT22;37900;52.996;6.278;2023-04-19T00:08:45;16.20;82.20
51863;DHT22;37900;52.996;6.278;2023-04-19T00:11:11;16.20;82.20
51863;DHT22;37900;52.996;6.278;2023-04-19T00:13:36;16.20;82.10
51863;DHT22;37900;52.996;6.278;2023-04-19T00:16:03;16.20;82.10
51863;DHT22;37900;52.996;6.278;2023-04-19T00:18:28;16.20;82.10
51863;DHT22;37900;52.996;6.278;2023-04-19T00:20:54;16.20;82.00
51863;DHT22;37900;52.996;6.278;2023-04-19T00:23:21;16.20;82.00
51863;DHT22;37900;52.996;6.278;2023-04-19T00:25:48;16.20;82.00
51863;DHT22;37900;52.996;6.278;2023-04-19T00:28:13;16.20;82.00
51863;DHT22;37900;52.996;6.278;2023-04-19T00:30:39;16.20;81.90
51863;DHT22;37900;52.996;6.278;2023-04-19T00:33:05;16.20;81.90
51863;DHT22;37900;52.996;6.278;2023-04-19T00:35:38;16.20;81.90
51863;DHT22;37900;52.996;6.278;2023-04-19T00:38:04;16.20;81.90
51863;DHT22;37900;52.996;6.278;2023-04-19T00:40:31;16.10;81.70
51863;DHT22;37900;52.996;6.278;2023-04-19T00:42:57;16.20;81.80
51863;DHT22;37900;52.996;6.278;2023-04-19T00:45:24;16.10;81.70
51863;DHT22;37900;52.996;6.278;2023-04-19T00:47:50;16.20;81.70
51863;DHT22;37900;52.996;6.278;2023-04-19T00:50:16;16.10;81.60
51863;DHT22;37900;52.996;6.278;2023-04-19T00:52:42;16.10;81.60
51863;DHT22;37900;52.996;6.278;2023-04-19T00:55:09;16.10;81.60
51863;DHT22;37900;52.996;6.278;2023-04-19T00:57:36;16.10;81.60
51863;DHT22;37900;52.996;6.278;2023-04-19T01:00:02;16.10;82.10
51863;DHT22;37900;52.996;6.278;2023-04-19T01:02:31;16.10;81.50
51863;DHT22;37900;52.996;6.278;2023-04-19T01:04:57;16.10;81.50
51863;DHT22;37900;52.996;6.278;2023-04-19T01:07:23;16.10;81.40
51863;DHT22;37900;52.996;6.278;2023-04-19T01:09:48;16.10;81.40
51863;DHT22;37900;52.996;6.278;2023-04-19T01:12:14;16.10;81.40
51863;DHT22;37900;52.996;6.278;2023-04-19T01:14:40;16.10;81.40
51863;DHT22;37900;52.996;6.278;2023-04-19T01:17:06;16.10;81.40
51863;DHT22;37900;52.996;6.278;2023-04-19T01:19:33;16.10;81.30
51863;DHT22;37900;52.996;6.278;2023-04-19T01:22:01;16.10;81.30
51863;DHT22;37900;52.996;6.278;2023-04-19T01:24:31;16.10;81.30
51863;DHT22;37900;52.996;6.278;2023-04-19T01:26:58;16.10;81.30
51863;DHT22;37900;52.996;6.278;2023-04-19T01:29:23;16.10;81.20
51863;DHT22;37900;52.996;6.278;2023-04-19T01:31:49;16.10;81.20
51863;DHT22;37900;52.996;6.278;2023-04-19T01:34:18;16.00;81.10
51863;DHT22;37900;52.996;6.278;2023-04-19T01:36:44;16.00;81.10
51863;DHT22;37900;52.996;6.278;2023-04-19T01:39:10;16.00;81.10
51863;DHT22;37900;52.996;6.278;2023-04-19T01:41:36;16.00;81.00
51863;DHT22;37900;52.996;6.278;2023-04-19T01:44:02;16.10;81.10
51863;DHT22;37900;52.996;6.278;2023-04-19T01:46:28;16.00;81.00
51863;DHT22;37900;52.996;6.278;2023-04-19T01:48:54;16.00;81.00
51863;DHT22;37900;52.996;6.278;2023-04-19T01:51:19;16.10;81.00
51863;DHT22;37900;52.996;6.278;2023-04-19T01:53:46;16.00;80.90
51863;DHT22;37900;52.996;6.278;2023-04-19T01:56:17;16.00;80.90
51863;DHT22;37900;52.996;6.278;2023-04-19T01:58:42;16.00;80.90
51863;DHT22;37900;52.996;6.278;2023-04-19T02:01:08;16.00;80.90
51863;DHT22;37900;52.996;6.278;2023-04-19T02:03:37;16.00;80.80
51863;DHT22;37900;52.996;6.278;2023-04-19T02:06:03;16.00;80.80
51863;DHT22;37900;52.996;6.278;2023-04-19T02:08:29;16.00;80.80
51863;DHT22;37900;52.996;6.278;2023-04-19T02:10:54;16.00;80.70
51863;DHT22;37900;52.996;6.278;2023-04-19T02:13:20;16.00;80.80
51863;DHT22;37900;52.996;6.278;2023-04-19T02:15:46;16.00;80.70
51863;DHT22;37900;52.996;6.278;2023-04-19T02:18:12;16.00;80.60
51863;DHT22;37900;52.996;6.278;2023-04-19T02:20:38;15.90;80.60
51863;DHT22;37900;52.996;6.278;2023-04-19T02:23:04;15.90;80.60
51863;DHT22;37900;52.996;6.278;2023-04-19T02:25:30;16.00;80.60
51863;DHT22;37900;52.996;6.278;2023-04-19T02:27:55;15.90;80.50
51863;DHT22;37900;52.996;6.278;2023-04-19T02:30:21;15.90;80.50
51863;DHT22;37900;52.996;6.278;2023-04-19T02:32:48;15.90;80.50
51863;DHT22;37900;52.996;6.278;2023-04-19T02:35:14;15.90;80.50
51863;DHT22;37900;52.996;6.278;2023-04-19T02:37:39;15.90;80.50
51863;DHT22;37900;52.996;6.278;2023-04-19T02:40:06;15.90;80.40
51863;DHT22;37900;52.996;6.278;2023-04-19T02:42:32;15.90;80.40
51863;DHT22;37900;52.996;6.278;2023-04-19T02:44:57;15.90;80.40
51863;DHT22;37900;52.996;6.278;2023-04-19T02:47:23;15.90;80.40
51863;DHT22;37900;52.996;6.278;2023-04-19T02:49:49;15.90;80.40
51863;DHT22;37900;52.996;6.278;2023-04-19T02:52:15;15.90;80.30
51863;DHT22;37900;52.996;6.278;2023-04-19T02:54:40;15.90;80.30
51863;DHT22;37900;52.996;6.278;2023-04-19T02:57:07;15.90;80.30
51863;DHT22;37900;52.996;6.278;2023-04-19T02:59:32;15.90;80.30
51863;DHT22;37900;52.996;6.278;2023-04-19T03:01:58;15.90;80.20
51863;DHT22;37900;52.996;6.278;2023-04-19T03:04:23;15.90;80.20
51863;DHT22;37900;52.996;6.278;2023-04-19T03:06:51;15.90;80.20
51863;DHT22;37900;52.996;6.278;2023-04-19T03:09:16;15.90;80.20
51863;DHT22;37900;52.996;6.278;2023-04-19T03:11:42;15.90;80.20
51863;DHT22;37900;52.996;6.278;2023-04-19T03:14:08;15.80;80.10
51863;DHT22;37900;52.996;6.278;2023-04-19T03:16:33;15.80;80.10
51863;DHT22;37900;52.996;6.278;2023-04-19T03:18:59;15.80;80.00
51863;DHT22;37900;52.996;6.278;2023-04-19T03:21:25;15.80;80.00
51863;DHT22;37900;52.996;6.278;2023-04-19T03:23:54;15.80;80.00
51863;DHT22;37900;52.996;6.278;2023-04-19T03:26:19;15.80;80.00
51863;DHT22;37900;52.996;6.278;2023-04-19T03:28:45;15.90;80.00
51863;DHT22;37900;52.996;6.278;2023-04-19T03:31:11;15.80;80.00
51863;DHT22;37900;52.996;6.278;2023-04-19T03:33:36;15.80;80.00
51863;DHT22;37900;52.996;6.278;2023-04-19T03:36:02;15.80;79.90
51863;DHT22;37900;52.996;6.278;2023-04-19T03:38:28;15.80;79.90
51863;DHT22;37900;52.996;6.278;2023-04-19T03:40:54;15.60;79.80
51863;DHT22;37900;52.996;6.278;2023-04-19T03:43:20;15.80;79.90
51863;DHT22;37900;52.996;6.278;2023-04-19T03:45:46;15.80;79.80
51863;DHT22;37900;52.996;6.278;2023-04-19T03:48:12;15.80;79.90
51863;DHT22;37900;52.996;6.278;2023-04-19T03:50:38;15.80;79.90
51863;DHT22;37900;52.996;6.278;2023-04-19T03:53:04;15.80;79.80
51863;DHT22;37900;52.996;6.278;2023-04-19T03:55:30;15.80;79.80
51863;DHT22;37900;52.996;6.278;2023-04-19T03:57:56;15.80;79.80
51863;DHT22;37900;52.996;6.278;2023-04-19T04:00:21;15.80;79.80
51863;DHT22;37900;52.996;6.278;2023-04-19T04:02:47;15.80;79.70
51863;DHT22;37900;52.996;6.278;2023-04-19T04:05:14;15.80;79.70
51863;DHT22;37900;52.996;6.278;2023-04-19T04:07:40;15.80;79.70
51863;DHT22;37900;52.996;6.278;2023-04-19T04:10:07;15.70;79.60
51863;DHT22;37900;52.996;6.278;2023-04-19T04:12:32;15.80;79.70
51863;DHT22;37900;52.996;6.278;2023-04-19T04:14:58;15.80;79.60
51863;DHT22;37900;52.996;6.278;2023-04-19T04:17:24;15.70;79.60
51863;DHT22;37900;52.996;6.278;2023-04-19T04:19:50;15.70;79.60
51863;DHT22;37900;52.996;6.278;2023-04-19T04:22:16;15.70;79.50
51863;DHT22;37900;52.996;6.278;2023-04-19T04:24:42;15.70;79.50
51863;DHT22;37900;52.996;6.278;2023-04-19T04:27:09;15.70;79.50
51863;DHT22;37900;52.996;6.278;2023-04-19T04:29:36;15.70;79.50
51863;DHT22;37900;52.996;6.278;2023-04-19T04:32:05;15.70;79.50
51863;DHT22;37900;52.996;6.278;2023-04-19T04:34:33;15.70;79.50
51863;DHT22;37900;52.996;6.278;2023-04-19T04:36:58;15.70;79.50
51863;DHT22;37900;52.996;6.278;2023-04-19T04:39:25;15.70;79.50
51863;DHT22;37900;52.996;6.278;2023-04-19T04:41:50;15.70;79.40
51863;DHT22;37900;52.996;6.278;2023-04-19T04:44:17;15.70;79.40
51863;DHT22;37900;52.996;6.278;2023-04-19T04:46:45;15.70;79.40
51863;DHT22;37900;52.996;6.278;2023-04-19T04:49:11;15.70;79.40
51863;DHT22;37900;52.996;6.278;2023-04-19T04:51:36;15.70;79.40
51863;DHT22;37900;52.996;6.278;2023-04-19T04:54:02;15.70;79.30
51863;DHT22;37900;52.996;6.278;2023-04-19T04:56:29;15.70;79.30
51863;DHT22;37900;52.996;6.278;2023-04-19T04:58:55;15.70;79.30
51863;DHT22;37900;52.996;6.278;2023-04-19T05:01:22;15.70;79.30
51863;DHT22;37900;52.996;6.278;2023-04-19T05:03:49;15.60;79.30
51863;DHT22;37900;52.996;6.278;2023-04-19T05:06:14;15.70;79.30
51863;DHT22;37900;52.996;6.278;2023-04-19T05:08:40;15.60;79.20
51863;DHT22;37900;52.996;6.278;2023-04-19T05:11:06;15.60;79.20
51863;DHT22;37900;52.996;6.278;2023-04-19T05:13:32;15.60;79.20
51863;DHT22;37900;52.996;6.278;2023-04-19T05:15:58;15.70;79.30
51863;DHT22;37900;52.996;6.278;2023-04-19T05:18:24;15.60;79.20
51863;DHT22;37900;52.996;6.278;2023-04-19T05:20:50;15.60;79.20
51863;DHT22;37900;52.996;6.278;2023-04-19T05:23:15;15.60;79.10
51863;DHT22;37900;52.996;6.278;2023-04-19T05:25:41;15.60;79.10
51863;DHT22;37900;52.996;6.278;2023-04-19T05:28:07;15.60;79.70
51863;DHT22;37900;52.996;6.278;2023-04-19T05:30:32;15.60;79.10
51863;DHT22;37900;52.996;6.278;2023-04-19T05:32:58;15.60;79.10
51863;DHT22;37900;52.996;6.278;2023-04-19T05:35:24;15.60;79.10
51863;DHT22;37900;52.996;6.278;2023-04-19T05:37:50;15.60;79.10
51863;DHT22;37900;52.996;6.278;2023-04-19T05:40:16;15.60;79.00
51863;DHT22;37900;52.996;6.278;2023-04-19T05:42:42;15.60;79.00
51863;DHT22;37900;52.996;6.278;2023-04-19T05:45:08;15.60;79.00
51863;DHT22;37900;52.996;6.278;2023-04-19T05:47:34;15.60;79.00
51863;DHT22;37900;52.996;6.278;2023-04-19T05:50:00;15.60;79.00
51863;DHT22;37900;52.996;6.278;2023-04-19T05:52:26;15.70;79.10
51863;DHT22;37900;52.996;6.278;2023-04-19T05:54:51;15.70;79.10
51863;DHT22;37900;52.996;6.278;2023-04-19T05:57:17;15.70;79.10
51863;DHT22;37900;52.996;6.278;2023-04-19T05:59:43;15.70;79.10
51863;DHT22;37900;52.996;6.278;2023-04-19T06:02:08;15.70;79.20
51863;DHT22;37900;52.996;6.278;2023-04-19T06:04:35;15.70;79.20
51863;DHT22;37900;52.996;6.278;2023-04-19T06:07:00;15.70;79.20
51863;DHT22;37900;52.996;6.278;2023-04-19T06:09:26;15.70;79.20
51863;DHT22;37900;52.996;6.278;2023-04-19T06:11:52;15.70;79.20
51863;DHT22;37900;52.996;6.278;2023-04-19T06:14:19;15.70;79.20
51863;DHT22;37900;52.996;6.278;2023-04-19T06:16:45;15.70;79.30
51863;DHT22;37900;52.996;6.278;2023-04-19T06:19:10;15.70;79.30
51863;DHT22;37900;52.996;6.278;2023-04-19T06:21:36;15.80;79.30
51863;DHT22;37900;52.996;6.278;2023-04-19T06:24:02;15.80;79.30
51863;DHT22;37900;52.996;6.278;2023-04-19T06:26:28;15.80;79.30
51863;DHT22;37900;52.996;6.278;2023-04-19T06:28:54;15.80;79.40
51863;DHT22;37900;52.996;6.278;2023-04-19T06:31:20;15.80;79.40
51863;DHT22;37900;52.996;6.278;2023-04-19T06:33:45;15.80;79.40
51863;DHT22;37900;52.996;6.278;2023-04-19T06:36:11;15.80;79.40
51863;DHT22;37900;52.996;6.278;2023-04-19T06:38:37;15.80;79.40
51863;DHT22;37900;52.996;6.278;2023-04-19T06:41:03;15.80;79.40
51863;DHT22;37900;52.996;6.278;2023-04-19T06:43:29;15.80;79.50
51863;DHT22;37900;52.996;6.278;2023-04-19T06:45:59;15.80;79.50
51863;DHT22;37900;52.996;6.278;2023-04-19T06:48:24;15.80;79.50
51863;DHT22;37900;52.996;6.278;2023-04-19T06:50:50;15.80;79.60
51863;DHT22;37900;52.996;6.278;2023-04-19T06:53:16;15.80;79.60
51863;DHT22;37900;52.996;6.278;2023-04-19T06:55:43;15.80;79.60
51863;DHT22;37900;52.996;6.278;2023-04-19T06:58:08;15.80;79.70
51863;DHT22;37900;52.996;6.278;2023-04-19T07:00:38;15.80;79.70
51863;DHT22;37900;52.996;6.278;2023-04-19T07:03:04;15.80;79.70
51863;DHT22;37900;52.996;6.278;2023-04-19T07:05:30;15.80;79.70
51863;DHT22;37900;52.996;6.278;2023-04-19T07:07:56;15.80;79.80
51863;DHT22;37900;52.996;6.278;2023-04-19T07:10:22;15.80;80.00
51863;DHT22;37900;52.996;6.278;2023-04-19T07:12:48;15.80;80.20
51863;DHT22;37900;52.996;6.278;2023-04-19T07:15:14;15.80;80.30
51863;DHT22;37900;52.996;6.278;2023-04-19T07:17:39;15.80;80.40
51863;DHT22;37900;52.996;6.278;2023-04-19T07:20:06;15.90;80.60
51863;DHT22;37900;52.996;6.278;2023-04-19T07:22:32;15.90;80.70
51863;DHT22;37900;52.996;6.278;2023-04-19T07:24:58;15.90;80.80
51863;DHT22;37900;52.996;6.278;2023-04-19T07:27:24;15.90;80.90
51863;DHT22;37900;52.996;6.278;2023-04-19T07:29:50;15.90;81.00
51863;DHT22;37900;52.996;6.278;2023-04-19T07:32:16;15.90;81.10
51863;DHT22;37900;52.996;6.278;2023-04-19T07:34:42;15.90;81.20
51863;DHT22;37900;52.996;6.278;2023-04-19T07:37:08;15.90;81.30
51863;DHT22;37900;52.996;6.278;2023-04-19T07:39:33;15.90;81.20
51863;DHT22;37900;52.996;6.278;2023-04-19T07:41:59;15.90;81.20
51863;DHT22;37900;52.996;6.278;2023-04-19T07:44:27;15.90;81.20
51863;DHT22;37900;52.996;6.278;2023-04-19T07:46:53;15.90;81.20
51863;DHT22;37900;52.996;6.278;2023-04-19T07:49:19;15.90;81.20
51863;DHT22;37900;52.996;6.278;2023-04-19T07:51:45;15.90;81.20
51863;DHT22;37900;52.996;6.278;2023-04-19T07:54:11;15.90;81.20
51863;DHT22;37900;52.996;6.278;2023-04-19T07:56:37;15.90;81.10
51863;DHT22;37900;52.996;6.278;2023-04-19T07:59:02;15.90;81.10
51863;DHT22;37900;52.996;6.278;2023-04-19T08:01:28;15.90;81.10
51863;DHT22;37900;52.996;6.278;2023-04-19T08:03:54;15.90;81.00
51863;DHT22;37900;52.996;6.278;2023-04-19T08:06:20;15.90;81.00
51863;DHT22;37900;52.996;6.278;2023-04-19T08:08:47;15.90;81.00
51863;DHT22;37900;52.996;6.278;2023-04-19T08:11:12;15.90;81.20
51863;DHT22;37900;52.996;6.278;2023-04-19T08:13:38;15.90;81.40
51863;DHT22;37900;52.996;6.278;2023-04-19T08:16:04;15.90;81.50
51863;DHT22;37900;52.996;6.278;2023-04-19T08:18:31;15.90;81.50
51863;DHT22;37900;52.996;6.278;2023-04-19T08:20:57;15.90;81.50
51863;DHT22;37900;52.996;6.278;2023-04-19T08:23:23;15.90;81.40
51863;DHT22;37900;52.996;6.278;2023-04-19T08:25:49;15.90;81.40
51863;DHT22;37900;52.996;6.278;2023-04-19T08:28:16;15.90;81.40
51863;DHT22;37900;52.996;6.278;2023-04-19T08:30:42;15.90;81.40
51863;DHT22;37900;52.996;6.278;2023-04-19T08:33:07;15.90;81.30
51863;DHT22;37900;52.996;6.278;2023-04-19T08:35:34;15.90;81.30
51863;DHT22;37900;52.996;6.278;2023-04-19T08:38:01;15.90;81.10
51863;DHT22;37900;52.996;6.278;2023-04-19T08:40:29;15.90;81.10
51863;DHT22;37900;52.996;6.278;2023-04-19T08:42:56;15.90;81.60
51863;DHT22;37900;52.996;6.278;2023-04-19T08:45:26;15.90;80.90
51863;DHT22;37900;52.996;6.278;2023-04-19T08:47:53;15.90;80.90
51863;DHT22;37900;52.996;6.278;2023-04-19T08:50:20;15.90;80.70
51863;DHT22;37900;52.996;6.278;2023-04-19T08:52:47;15.90;80.70
51863;DHT22;37900;52.996;6.278;2023-04-19T08:55:14;15.90;80.80
51863;DHT22;37900;52.996;6.278;2023-04-19T08:57:40;15.90;80.80
51863;DHT22;37900;52.996;6.278;2023-04-19T09:00:06;15.90;80.90
51863;DHT22;37900;52.996;6.278;2023-04-19T09:02:47;15.90;81.00
51863;DHT22;37900;52.996;6.278;2023-04-19T09:05:14;15.90;81.00
51863;DHT22;37900;52.996;6.278;2023-04-19T09:07:40;15.90;81.00
51863;DHT22;37900;52.996;6.278;2023-04-19T09:10:14;15.90;81.00
51863;DHT22;37900;52.996;6.278;2023-04-19T09:12:41;15.90;81.00
51863;DHT22;37900;52.996;6.278;2023-04-19T09:15:07;15.90;81.00
51863;DHT22;37900;52.996;6.278;2023-04-19T09:17:38;15.90;81.00
51863;DHT22;37900;52.996;6.278;2023-04-19T09:20:05;15.90;81.00
51863;DHT22;37900;52.996;6.278;2023-04-19T09:22:32;15.90;81.00
51863;DHT22;37900;52.996;6.278;2023-04-19T09:24:58;15.90;81.00
51863;DHT22;37900;52.996;6.278;2023-04-19T09:27:26;15.90;81.00
51863;DHT22;37900;52.996;6.278;2023-04-19T09:29:56;15.90;80.90
51863;DHT22;37900;52.996;6.278;2023-04-19T09:32:23;15.90;80.90
51863;DHT22;37900;52.996;6.278;2023-04-19T09:34:52;15.90;80.80
51863;DHT22;37900;52.996;6.278;2023-04-19T09:37:18;15.90;80.70
51863;DHT22;37900;52.996;6.278;2023-04-19T09:39:44;15.90;80.70
51863;DHT22;37900;52.996;6.278;2023-04-19T09:42:10;15.90;80.50
51863;DHT22;37900;52.996;6.278;2023-04-19T09:44:36;15.90;80.40
51863;DHT22;37900;52.996;6.278;2023-04-19T09:47:01;15.90;80.30
51863;DHT22;37900;52.996;6.278;2023-04-19T09:49:27;15.90;80.20
51863;DHT22;37900;52.996;6.278;2023-04-19T09:51:54;15.90;80.10
51863;DHT22;37900;52.996;6.278;2023-04-19T09:54:21;15.90;80.00
51863;DHT22;37900;52.996;6.278;2023-04-19T09:56:48;15.90;79.80
51863;DHT22;37900;52.996;6.278;2023-04-19T09:59:14;15.90;79.90
51863;DHT22;37900;52.996;6.278;2023-04-19T10:01:52;15.90;80.10
51863;DHT22;37900;52.996;6.278;2023-04-19T10:04:18;15.90;80.60
51863;DHT22;37900;52.996;6.278;2023-04-19T10:06:52;15.90;81.20
51863;DHT22;37900;52.996;6.278;2023-04-19T10:09:20;15.90;81.10
51863;DHT22;37900;52.996;6.278;2023-04-19T10:11:50;15.90;81.20
51863;DHT22;37900;52.996;6.278;2023-04-19T10:14:23;15.90;81.20
51863;DHT22;37900;52.996;6.278;2023-04-19T10:16:50;15.90;81.20
51863;DHT22;37900;52.996;6.278;2023-04-19T10:19:18;15.90;81.20
51863;DHT22;37900;52.996;6.278;2023-04-19T10:21:46;15.90;81.00
51863;DHT22;37900;52.996;6.278;2023-04-19T10:24:12;15.90;80.90
51863;DHT22;37900;52.996;6.278;2023-04-19T10:30:01;15.90;80.50
51863;DHT22;37900;52.996;6.278;2023-04-19T10:32:40;15.90;80.40
51863;DHT22;37900;52.996;6.278;2023-04-19T10:35:15;15.90;80.30
51863;DHT22;37900;52.996;6.278;2023-04-19T10:43:18;15.90;79.50
51863;DHT22;37900;52.996;6.278;2023-04-19T10:45:44;16.00;79.60
51863;DHT22;37900;52.996;6.278;2023-04-19T10:50:58;16.00;79.20
51863;DHT22;37900;52.996;6.278;2023-04-19T10:56:12;16.00;78.90
51863;DHT22;37900;52.996;6.278;2023-04-19T11:04:03;16.00;78.90
51863;DHT22;37900;52.996;6.278;2023-04-19T11:06:28;16.00;78.80
51863;DHT22;37900;52.996;6.278;2023-04-19T11:08:55;16.00;78.70
51863;DHT22;37900;52.996;6.278;2023-04-19T11:11:21;16.00;78.60
51863;DHT22;37900;52.996;6.278;2023-04-19T11:13:48;16.00;78.50
51863;DHT22;37900;52.996;6.278;2023-04-19T11:16:13;16.00;78.30
51863;DHT22;37900;52.996;6.278;2023-04-19T11:18:40;16.00;77.90
51863;DHT22;37900;52.996;6.278;2023-04-19T11:21:06;16.00;77.60
51863;DHT22;37900;52.996;6.278;2023-04-19T11:23:31;16.00;77.30
51863;DHT22;37900;52.996;6.278;2023-04-19T11:25:57;16.00;77.20
51863;DHT22;37900;52.996;6.278;2023-04-19T11:28:23;16.00;77.00
51863;DHT22;37900;52.996;6.278;2023-04-19T11:30:50;16.10;77.00
51863;DHT22;37900;52.996;6.278;2023-04-19T11:33:18;16.10;77.00
51863;DHT22;37900;52.996;6.278;2023-04-19T11:35:49;16.10;76.90
51863;DHT22;37900;52.996;6.278;2023-04-19T11:38:15;16.10;77.00
51863;DHT22;37900;52.996;6.278;2023-04-19T11:40:41;16.10;77.00
51863;DHT22;37900;52.996;6.278;2023-04-19T11:43:07;16.10;76.90
51863;DHT22;37900;52.996;6.278;2023-04-19T11:45:35;16.00;76.80
51863;DHT22;37900;52.996;6.278;2023-04-19T11:48:03;16.10;76.80
51863;DHT22;37900;52.996;6.278;2023-04-19T11:50:47;16.00;76.70
51863;DHT22;37900;52.996;6.278;2023-04-19T11:53:20;16.00;76.50
51863;DHT22;37900;52.996;6.278;2023-04-19T11:55:53;16.00;76.40
51863;DHT22;37900;52.996;6.278;2023-04-19T11:58:30;16.00;76.00
51863;DHT22;37900;52.996;6.278;2023-04-19T12:01:03;16.00;75.60
51863;DHT22;37900;52.996;6.278;2023-04-19T12:03:32;16.00;75.40
51863;DHT22;37900;52.996;6.278;2023-04-19T12:06:01;16.00;75.20
51863;DHT22;37900;52.996;6.278;2023-04-19T12:08:41;16.10;75.30
51863;DHT22;37900;52.996;6.278;2023-04-19T12:11:07;16.10;75.20
51863;DHT22;37900;52.996;6.278;2023-04-19T12:13:33;16.10;75.10
51863;DHT22;37900;52.996;6.278;2023-04-19T12:15:59;16.10;75.10
51863;DHT22;37900;52.996;6.278;2023-04-19T12:18:25;16.20;75.80
51863;DHT22;37900;52.996;6.278;2023-04-19T12:20:51;16.10;75.20
51863;DHT22;37900;52.996;6.278;2023-04-19T12:23:19;16.10;75.20
51863;DHT22;37900;52.996;6.278;2023-04-19T12:25:46;16.10;75.20
51863;DHT22;37900;52.996;6.278;2023-04-19T12:28:13;16.10;75.20
51863;DHT22;37900;52.996;6.278;2023-04-19T12:30:40;16.10;75.10
51863;DHT22;37900;52.996;6.278;2023-04-19T12:33:06;16.10;75.10
51863;DHT22;37900;52.996;6.278;2023-04-19T12:35:33;16.00;75.00
51863;DHT22;37900;52.996;6.278;2023-04-19T12:37:59;16.10;74.70
51863;DHT22;37900;52.996;6.278;2023-04-19T12:40:26;16.00;74.30
51863;DHT22;37900;52.996;6.278;2023-04-19T12:42:52;16.10;74.10
51863;DHT22;37900;52.996;6.278;2023-04-19T12:45:19;16.10;73.90
51863;DHT22;37900;52.996;6.278;2023-04-19T12:47:46;16.10;73.80
51863;DHT22;37900;52.996;6.278;2023-04-19T12:50:13;16.10;74.50
51863;DHT22;37900;52.996;6.278;2023-04-19T12:52:39;16.20;74.00
51863;DHT22;37900;52.996;6.278;2023-04-19T12:55:05;16.10;74.80
51863;DHT22;37900;52.996;6.278;2023-04-19T12:57:32;16.20;74.50
51863;DHT22;37900;52.996;6.278;2023-04-19T12:59:57;16.10;74.80
51863;DHT22;37900;52.996;6.278;2023-04-19T13:02:23;16.10;75.00
51863;DHT22;37900;52.996;6.278;2023-04-19T13:04:49;16.20;75.20
51863;DHT22;37900;52.996;6.278;2023-04-19T13:07:15;16.20;75.40
51863;DHT22;37900;52.996;6.278;2023-04-19T13:09:41;16.10;76.00
51863;DHT22;37900;52.996;6.278;2023-04-19T13:12:07;16.10;75.40
51863;DHT22;37900;52.996;6.278;2023-04-19T13:14:33;16.10;75.30
51863;DHT22;37900;52.996;6.278;2023-04-19T13:16:58;16.10;75.30
51863;DHT22;37900;52.996;6.278;2023-04-19T13:19:24;16.10;75.30
51863;DHT22;37900;52.996;6.278;2023-04-19T13:21:51;16.10;75.00
51863;DHT22;37900;52.996;6.278;2023-04-19T13:24:16;16.10;74.80
51863;DHT22;37900;52.996;6.278;2023-04-19T13:26:42;16.10;74.60
51863;DHT22;37900;52.996;6.278;2023-04-19T13:29:11;16.20;74.50
51863;DHT22;37900;52.996;6.278;2023-04-19T13:31:37;16.20;74.40
51863;DHT22;37900;52.996;6.278;2023-04-19T13:34:03;16.20;74.40
51863;DHT22;37900;52.996;6.278;2023-04-19T13:36:28;16.20;74.40
51863;DHT22;37900;52.996;6.278;2023-04-19T13:38:54;16.20;74.30
51863;DHT22;37900;52.996;6.278;2023-04-19T13:41:20;16.20;74.40
51863;DHT22;37900;52.996;6.278;2023-04-19T13:43:46;16.20;74.40
51863;DHT22;37900;52.996;6.278;2023-04-19T13:46:12;16.20;74.40
51863;DHT22;37900;52.996;6.278;2023-04-19T13:48:38;16.20;74.40
51863;DHT22;37900;52.996;6.278;2023-04-19T13:51:04;16.20;74.40
51863;DHT22;37900;52.996;6.278;2023-04-19T13:53:30;16.20;74.50
51863;DHT22;37900;52.996;6.278;2023-04-19T13:55:56;16.20;74.50
51863;DHT22;37900;52.996;6.278;2023-04-19T13:58:22;16.20;74.50
51863;DHT22;37900;52.996;6.278;2023-04-19T14:00:49;16.20;74.50
51863;DHT22;37900;52.996;6.278;2023-04-19T14:03:15;16.20;74.30
51863;DHT22;37900;52.996;6.278;2023-04-19T14:05:42;16.10;74.10
51863;DHT22;37900;52.996;6.278;2023-04-19T14:08:08;16.20;74.00
51863;DHT22;37900;52.996;6.278;2023-04-19T14:10:34;16.20;73.90
51863;DHT22;37900;52.996;6.278;2023-04-19T14:13:01;16.20;73.90
51863;DHT22;37900;52.996;6.278;2023-04-19T14:15:26;16.20;73.80
51863;DHT22;37900;52.996;6.278;2023-04-19T14:17:52;16.20;73.80
51863;DHT22;37900;52.996;6.278;2023-04-19T14:20:18;16.20;73.80
51863;DHT22;37900;52.996;6.278;2023-04-19T14:22:44;16.20;73.80
51863;DHT22;37900;52.996;6.278;2023-04-19T14:25:10;16.20;73.90
51863;DHT22;37900;52.996;6.278;2023-04-19T14:27:37;16.20;73.90
51863;DHT22;37900;52.996;6.278;2023-04-19T14:30:04;16.20;73.90
51863;DHT22;37900;52.996;6.278;2023-04-19T14:32:30;16.20;74.00
51863;DHT22;37900;52.996;6.278;2023-04-19T14:34:56;16.20;74.00
51863;DHT22;37900;52.996;6.278;2023-04-19T14:37:22;16.20;74.00
51863;DHT22;37900;52.996;6.278;2023-04-19T14:39:48;16.20;74.10
51863;DHT22;37900;52.996;6.278;2023-04-19T14:42:14;16.20;74.00
51863;DHT22;37900;52.996;6.278;2023-04-19T14:44:40;16.20;74.00
51863;DHT22;37900;52.996;6.278;2023-04-19T14:47:06;16.20;73.80
51863;DHT22;37900;52.996;6.278;2023-04-19T14:49:32;16.20;73.60
51863;DHT22;37900;52.996;6.278;2023-04-19T14:51:57;16.20;73.50
51863;DHT22;37900;52.996;6.278;2023-04-19T14:54:23;16.20;73.40
51863;DHT22;37900;52.996;6.278;2023-04-19T14:56:49;16.20;73.30
51863;DHT22;37900;52.996;6.278;2023-04-19T14:59:15;16.20;73.40
51863;DHT22;37900;52.996;6.278;2023-04-19T15:01:41;16.30;73.40
51863;DHT22;37900;52.996;6.278;2023-04-19T15:04:06;16.30;73.40
51863;DHT22;37900;52.996;6.278;2023-04-19T15:06:33;16.30;73.50
51863;DHT22;37900;52.996;6.278;2023-04-19T15:08:58;16.30;73.50
51863;DHT22;37900;52.996;6.278;2023-04-19T15:11:24;16.30;73.50
51863;DHT22;37900;52.996;6.278;2023-04-19T15:13:50;16.20;73.50
51863;DHT22;37900;52.996;6.278;2023-04-19T15:16:16;16.20;73.60
51863;DHT22;37900;52.996;6.278;2023-04-19T15:18:42;16.20;73.60
51863;DHT22;37900;52.996;6.278;2023-04-19T15:21:07;16.20;73.60
51863;DHT22;37900;52.996;6.278;2023-04-19T15:23:33;16.20;73.60
51863;DHT22;37900;52.996;6.278;2023-04-19T15:25:59;16.20;73.60
51863;DHT22;37900;52.996;6.278;2023-04-19T15:28:25;16.20;73.60
51863;DHT22;37900;52.996;6.278;2023-04-19T15:30:58;16.20;73.60
51863;DHT22;37900;52.996;6.278;2023-04-19T15:33:25;16.20;73.30
51863;DHT22;37900;52.996;6.278;2023-04-19T15:35:52;16.20;73.20
51863;DHT22;37900;52.996;6.278;2023-04-19T15:38:19;16.20;73.60
51863;DHT22;37900;52.996;6.278;2023-04-19T15:40:45;16.20;72.90
51863;DHT22;37900;52.996;6.278;2023-04-19T15:43:11;16.30;73.00
51863;DHT22;37900;52.996;6.278;2023-04-19T15:45:37;16.30;73.00